createdAt,value
2018-12-19T00:09:26.446Z,97758.41
2018-12-19T00:19:44.849Z,97739.16
2018-12-19T00:30:03.597Z,97709.45
2018-12-19T00:40:22.603Z,97693.09
2018-12-19T00:50:41.634Z,97680.49
2018-12-19T01:00:59.900Z,97700.67
2018-12-19T01:11:19.298Z,97688.94
2018-12-19T01:21:38.219Z,97702.64
2018-12-19T01:31:58.104Z,97692.28
2018-12-19T01:42:16.665Z,97699.78
2018-12-19T01:52:35.700Z,97710.47
2018-12-19T02:02:56.409Z,97708.17
2018-12-19T02:13:15.097Z,97698.77
2018-12-19T02:23:33.695Z,97681.77
2018-12-19T02:33:53.740Z,97653.79
2018-12-19T02:44:13.396Z,97638.53
2018-12-19T02:54:33.299Z,97617.59
2018-12-19T03:04:52.757Z,97602.45
2018-12-19T03:15:12.156Z,97599.98
2018-12-19T03:25:30.494Z,97586.78
2018-12-19T03:35:50.734Z,97590.64
2018-12-19T03:46:09.558Z,97600.44
2018-12-19T03:56:28.107Z,97610.33
2018-12-19T04:06:47.116Z,97611.34
2018-12-19T04:17:05.878Z,97588.27
2018-12-19T04:27:25.062Z,97571.38
2018-12-19T04:37:44.372Z,97557.09
2018-12-19T04:48:03.619Z,97531.41
2018-12-19T04:58:22.080Z,97547.50
2018-12-19T05:08:40.562Z,97559.94
2018-12-19T05:18:58.711Z,97561.98
2018-12-19T05:29:17.286Z,97554.31
2018-12-19T05:39:36.395Z,97541.94
2018-12-19T05:49:54.786Z,97533.39
2018-12-19T06:00:13.387Z,97518.66
2018-12-19T06:10:32.206Z,97511.72
2018-12-19T06:20:51.414Z,97518.65
2018-12-19T06:31:09.788Z,97505.07
2018-12-19T06:41:29.132Z,97516.58
2018-12-19T06:51:48.797Z,97526.33
2018-12-19T07:02:08.066Z,97540.03
2018-12-19T07:12:26.937Z,97531.37
2018-12-19T07:22:46.441Z,97546.69
2018-12-19T07:33:05.465Z,97549.20
2018-12-19T07:43:24.594Z,97556.69
2018-12-19T07:53:43.616Z,97554.01
2018-12-19T08:04:06.007Z,97559.91
2018-12-19T08:14:27.472Z,97568.72
2018-12-19T08:24:46.220Z,97579.05
2018-12-19T08:35:12.123Z,97593.34
2018-12-19T08:57:38.859Z,97615.20
2018-12-19T09:07:57.538Z,97622.48
2018-12-19T09:18:16.599Z,97652.00
2018-12-19T09:28:38.735Z,97658.21
2018-12-19T09:38:57.300Z,97675.30
2018-12-19T09:49:16.763Z,97682.24
2018-12-19T09:59:35.879Z,97682.78
2018-12-19T10:09:55.512Z,97659.19
2018-12-19T10:20:15.002Z,97664.07
2018-12-19T10:30:47.628Z,97657.33
2018-12-19T10:41:05.998Z,97651.02
2018-12-19T10:51:26.068Z,97637.34
2018-12-19T11:01:44.957Z,97630.22
2018-12-19T11:12:05.124Z,97619.62
2018-12-19T11:22:23.955Z,97606.03
2018-12-19T11:32:43.050Z,97579.61
2018-12-19T11:43:02.451Z,97570.93
2018-12-19T11:53:22.089Z,97571.14
2018-12-19T12:03:40.519Z,97567.97
2018-12-19T12:13:59.509Z,97563.44
2018-12-19T12:24:19.395Z,97559.41
2018-12-19T12:34:38.369Z,97545.63
2018-12-19T12:44:57.581Z,97538.04
2018-12-19T12:55:16.781Z,97538.53
2018-12-19T13:05:36.089Z,97523.23
2018-12-19T13:15:55.805Z,97530.03
2018-12-19T13:26:16.038Z,97514.72
2018-12-19T13:36:35.896Z,97498.78
2018-12-19T13:46:55.059Z,97480.63
2018-12-19T13:57:13.555Z,97462.56
2018-12-19T14:07:32.389Z,97463.22
2018-12-19T14:17:51.214Z,97453.19
2018-12-19T14:28:10.071Z,97450.48
2018-12-19T14:38:29.598Z,97450.43
2018-12-19T14:48:48.704Z,97431.33
2018-12-19T14:59:07.427Z,97418.91
2018-12-19T15:09:26.470Z,97412.27
2018-12-19T15:19:45.204Z,97410.45
2018-12-19T15:30:04.591Z,97404.38
2018-12-19T15:40:23.912Z,97403.91
2018-12-19T15:50:43.107Z,97411.95
2018-12-19T16:01:02.684Z,97402.23
2018-12-19T16:11:21.647Z,97400.14
2018-12-19T16:21:41.147Z,97408.48
2018-12-19T16:32:00.599Z,97397.05
2018-12-19T16:42:21.035Z,97411.00
2018-12-19T16:52:41.234Z,97394.66
2018-12-19T17:03:01.002Z,97384.90
2018-12-19T17:13:19.777Z,97355.56
2018-12-19T17:23:49.712Z,97331.69
2018-12-19T17:45:23.127Z,97313.21
2018-12-19T17:55:42.101Z,97317.98
2018-12-19T18:06:08.479Z,97301.24
2018-12-19T18:28:06.861Z,97301.30
2018-12-19T18:38:26.784Z,97273.99
2018-12-19T18:49:05.112Z,97272.77
2018-12-19T18:59:22.929Z,97260.32
2018-12-19T19:09:43.795Z,97221.83
2018-12-19T19:20:03.811Z,97193.52
2018-12-19T19:30:24.609Z,97195.11
2018-12-19T19:40:43.466Z,97237.13
2018-12-19T19:51:04.920Z,97220.77
2018-12-19T20:01:24.047Z,97239.55
2018-12-19T20:11:42.999Z,97217.06
2018-12-19T20:22:01.820Z,97217.45
2018-12-19T20:32:21.101Z,97224.38
2018-12-19T20:42:40.563Z,97221.00
2018-12-19T20:52:59.898Z,97229.92
2018-12-19T21:03:18.913Z,97232.92
2018-12-19T21:13:38.036Z,97228.67
2018-12-19T21:23:57.200Z,97239.92
2018-12-19T21:34:16.518Z,97229.27
2018-12-19T21:44:35.327Z,97217.56
2018-12-19T21:54:55.030Z,97213.70
2018-12-19T22:05:13.715Z,97225.34
2018-12-19T22:15:32.940Z,97218.84
2018-12-19T22:25:56.671Z,97231.08
2018-12-19T22:36:15.881Z,97239.11
2018-12-19T22:46:35.316Z,97248.73
2018-12-19T22:56:55.742Z,97236.39
2018-12-19T23:07:14.346Z,97219.75
2018-12-19T23:17:42.619Z,97220.25
2018-12-19T23:28:21.799Z,97214.34
2018-12-19T23:38:42.708Z,97227.58
